createdAt,value
2019-04-24T00:01:51.053Z,97.00
2019-04-24T00:15:55.049Z,96.90
2019-04-24T00:22:07.225Z,96.60
2019-04-24T00:24:39.578Z,96.40
2019-04-24T00:27:18.571Z,96.40
2019-04-24T00:32:50.105Z,96.30
2019-04-24T00:35:31.989Z,96.30
2019-04-24T00:38:31.116Z,96.40
2019-04-24T00:41:11.631Z,96.40
2019-04-24T00:46:20.029Z,96.50
2019-04-24T00:54:24.267Z,96.80
2019-04-24T00:57:20.360Z,96.90
2019-04-24T01:02:31.943Z,96.90
2019-04-24T01:08:24.083Z,97.00
2019-04-24T01:11:24.456Z,97.10
2019-04-24T01:17:08.102Z,97.10
2019-04-24T01:19:46.728Z,97.20
2019-04-24T01:22:32.879Z,97.20
2019-04-24T01:25:23.454Z,97.40
2019-04-24T01:28:04.388Z,97.50
2019-04-24T01:35:48.915Z,98.00
2019-04-24T01:38:22.987Z,98.60
2019-04-24T01:40:56.222Z,99.40
2019-04-24T02:06:28.723Z,99.90
2019-04-24T02:09:25.751Z,99.90
2019-04-24T02:11:44.988Z,99.90
2019-04-24T02:14:15.320Z,99.90
2019-04-24T02:16:35.708Z,99.90
2019-04-24T02:19:08.168Z,99.90
2019-04-24T02:21:40.860Z,99.90
2019-04-24T02:24:13.546Z,99.90
2019-04-24T02:39:08.019Z,99.90
2019-04-24T02:44:56.822Z,99.90
2019-04-24T02:50:06.241Z,99.90
2019-04-24T02:53:11.756Z,99.90
2019-04-24T02:56:00.875Z,99.90
2019-04-24T03:02:13.318Z,99.90
2019-04-24T03:13:32.500Z,99.90
2019-04-24T03:16:48.226Z,99.90
2019-04-24T03:25:49.519Z,99.90
2019-04-24T03:28:08.215Z,99.90
2019-04-24T03:31:18.887Z,99.90
2019-04-24T03:33:48.435Z,99.90
2019-04-24T03:46:32.912Z,99.90
2019-04-24T04:00:43.541Z,99.90
2019-04-24T04:06:36.605Z,99.90
2019-04-24T04:09:14.624Z,99.90
2019-04-24T04:12:10.227Z,99.90
2019-04-24T04:26:52.665Z,99.90
2019-04-24T04:35:26.634Z,99.90
2019-04-24T04:38:26.078Z,99.90
2019-04-24T04:46:44.777Z,99.90
2019-04-24T04:52:05.806Z,99.90
2019-04-24T04:57:50.070Z,99.90
2019-04-24T05:01:06.326Z,99.90
2019-04-24T05:13:08.139Z,99.90
2019-04-24T05:14:55.203Z,99.90
2019-04-24T05:17:12.710Z,99.90
2019-04-24T05:24:39.849Z,99.90
2019-04-24T05:29:52.075Z,99.90
2019-04-24T05:33:14.135Z,99.90
2019-04-24T05:42:06.265Z,99.90
2019-04-24T05:44:46.539Z,99.90
2019-04-24T05:48:00.235Z,99.90
2019-04-24T05:51:06.512Z,99.90
2019-04-24T05:53:51.413Z,99.90
2019-04-24T05:59:34.905Z,99.90
2019-04-24T06:08:41.827Z,99.90
2019-04-24T06:11:36.478Z,99.90
2019-04-24T06:24:01.515Z,99.90
2019-04-24T06:31:38.057Z,99.90
2019-04-24T06:34:00.750Z,99.90
2019-04-24T06:37:03.523Z,99.90
2019-04-24T06:40:27.337Z,99.90
2019-04-24T06:45:51.197Z,99.90
2019-04-24T06:48:48.674Z,99.90
2019-04-24T06:54:36.945Z,99.90
2019-04-24T07:00:19.421Z,99.90
2019-04-24T07:02:40.349Z,99.90
2019-04-24T07:05:20.734Z,99.90
2019-04-24T07:13:09.800Z,99.90
2019-04-24T07:16:13.506Z,99.90
2019-04-24T07:19:36.149Z,99.90
2019-04-24T07:22:27.318Z,99.90
2019-04-24T07:25:34.611Z,99.90
2019-04-24T07:28:44.170Z,99.90
2019-04-24T07:31:50.655Z,99.90
2019-04-24T07:35:07.484Z,99.90
2019-04-24T07:41:27.260Z,99.90
2019-04-24T07:43:50.084Z,99.90
2019-04-24T07:46:10.214Z,99.90
2019-04-24T07:48:53.471Z,99.90
2019-04-24T07:51:13.998Z,99.90
2019-04-24T08:05:41.173Z,99.90
2019-04-24T08:08:46.457Z,99.90
2019-04-24T08:14:24.446Z,99.90
2019-04-24T08:17:17.694Z,99.90
2019-04-24T08:20:12.798Z,99.90
2019-04-24T08:22:50.430Z,99.90
2019-04-24T08:31:09.144Z,99.90
2019-04-24T08:36:37.086Z,99.90
2019-04-24T08:45:02.304Z,99.90
2019-04-24T08:48:00.250Z,99.90
2019-04-24T08:58:42.156Z,99.90
2019-04-24T09:01:54.279Z,99.90
2019-04-24T09:04:47.153Z,99.90
2019-04-24T09:07:03.049Z,99.90
2019-04-24T09:10:36.027Z,99.90
2019-04-24T09:13:13.121Z,99.90
2019-04-24T09:15:56.840Z,99.90
2019-04-24T09:18:43.098Z,99.90
2019-04-24T09:20:50.832Z,99.90
2019-04-24T09:26:27.652Z,99.90
2019-04-24T09:29:52.777Z,99.90
2019-04-24T09:33:41.995Z,99.90
2019-04-24T09:38:58.858Z,99.90
2019-04-24T09:42:05.232Z,99.90
2019-04-24T09:44:41.425Z,99.90
2019-04-24T10:02:12.085Z,99.90
2019-04-24T10:04:38.298Z,99.90
2019-04-24T10:19:25.048Z,99.90
2019-04-24T10:22:28.100Z,99.90
2019-04-24T10:28:50.282Z,99.90
2019-04-24T10:31:53.883Z,99.90
2019-04-24T10:34:13.445Z,99.90
2019-04-24T10:37:08.800Z,99.60
2019-04-24T10:43:04.279Z,99.90
2019-04-24T10:46:03.546Z,99.40
2019-04-24T10:48:38.316Z,99.20
2019-04-24T10:51:03.835Z,99.10
2019-04-24T10:53:49.127Z,99.60
2019-04-24T10:56:24.372Z,99.60
2019-04-24T10:58:45.384Z,99.70
2019-04-24T11:01:37.180Z,99.80
2019-04-24T11:04:29.331Z,99.80
2019-04-24T11:07:07.343Z,99.90
2019-04-24T11:09:50.380Z,99.40
2019-04-24T11:12:12.668Z,99.30
2019-04-24T11:14:41.551Z,99.30
2019-04-24T11:23:00.061Z,98.70
2019-04-24T11:26:13.973Z,98.70
2019-04-24T11:29:02.917Z,99.20
2019-04-24T11:35:16.020Z,98.60
2019-04-24T11:37:51.914Z,98.10
2019-04-24T11:43:14.008Z,97.80
2019-04-24T11:46:29.513Z,97.90
2019-04-24T11:48:57.760Z,97.60
2019-04-24T11:54:09.575Z,97.80
2019-04-24T11:59:26.938Z,97.30
2019-04-24T12:06:01.417Z,98.00
2019-04-24T12:08:29.460Z,97.80
2019-04-24T12:14:05.630Z,97.10
2019-04-24T12:19:58.754Z,96.60
2019-04-24T12:22:36.146Z,96.90
2019-04-24T12:25:11.827Z,96.90
2019-04-24T12:27:59.076Z,96.60
2019-04-24T12:30:46.614Z,96.20
2019-04-24T12:33:36.357Z,95.80
2019-04-24T12:36:05.346Z,96.00
2019-04-24T12:44:39.474Z,95.90
2019-04-24T12:50:05.258Z,95.00
2019-04-24T12:52:58.247Z,95.10
2019-04-24T12:55:43.681Z,94.70
2019-04-24T13:01:20.787Z,94.20
2019-04-24T13:04:18.784Z,94.10
2019-04-24T13:06:38.456Z,94.20
2019-04-24T13:12:38.431Z,94.30
2019-04-24T13:15:14.057Z,93.50
2019-04-24T13:17:56.544Z,93.50
2019-04-24T13:19:42.811Z,93.30
2019-04-24T13:22:24.671Z,93.20
2019-04-24T13:25:07.032Z,92.80
2019-04-24T13:28:14.686Z,92.90
2019-04-24T13:33:14.568Z,92.70
2019-04-24T13:35:56.547Z,92.90
2019-04-24T13:38:46.882Z,92.90
2019-04-24T13:41:42.645Z,92.60
2019-04-24T13:44:18.061Z,92.40
2019-04-24T13:47:14.635Z,92.30
2019-04-24T13:53:20.326Z,92.60
2019-04-24T13:55:19.849Z,92.20
2019-04-24T13:58:02.959Z,91.50
2019-04-24T14:11:31.309Z,91.10
2019-04-24T14:20:02.006Z,90.50
2019-04-24T14:23:09.677Z,90.60
2019-04-24T14:31:25.023Z,89.80
2019-04-24T14:34:13.007Z,89.90
2019-04-24T14:36:49.307Z,89.90
2019-04-24T14:42:11.845Z,90.00
2019-04-24T14:50:29.647Z,88.70
2019-04-24T14:53:16.216Z,87.60
2019-04-24T14:55:52.186Z,88.20
2019-04-24T14:58:51.323Z,88.70
2019-04-24T15:01:31.458Z,88.60
2019-04-24T15:03:59.603Z,87.70
2019-04-24T15:06:49.692Z,87.40
2019-04-24T15:14:59.503Z,87.60
2019-04-24T15:20:35.897Z,87.10
2019-04-24T15:25:57.179Z,86.80
2019-04-24T15:28:39.436Z,86.10
2019-04-24T15:31:29.201Z,85.40
2019-04-24T15:34:24.611Z,84.00
2019-04-24T15:51:35.916Z,83.60
2019-04-24T15:54:02.899Z,83.40
2019-04-24T15:56:52.205Z,83.60
2019-04-24T16:00:14.962Z,84.40
2019-04-24T16:08:28.257Z,85.50
2019-04-24T16:14:44.252Z,86.30
2019-04-24T16:26:45.986Z,86.10
2019-04-24T16:29:20.678Z,85.60
2019-04-24T16:34:56.068Z,85.90
2019-04-24T16:46:21.382Z,86.00
2019-04-24T16:48:37.440Z,86.30
2019-04-24T16:51:22.351Z,86.40
2019-04-24T16:54:03.423Z,86.10
2019-04-24T17:05:03.776Z,86.80
2019-04-24T17:07:38.894Z,87.30
2019-04-24T17:10:29.455Z,87.80
2019-04-24T17:13:03.034Z,88.00
2019-04-24T17:15:54.656Z,87.80
2019-04-24T17:18:15.473Z,87.90
2019-04-24T17:21:10.912Z,87.70
2019-04-24T17:26:28.888Z,88.00
2019-04-24T17:29:27.274Z,88.10
2019-04-24T17:32:11.991Z,88.60
2019-04-24T17:34:54.985Z,88.70
2019-04-24T17:36:59.989Z,88.70
2019-04-24T17:39:44.980Z,89.20
2019-04-24T17:42:36.636Z,89.00
2019-04-24T17:48:29.091Z,89.80
2019-04-24T17:51:01.720Z,89.70
2019-04-24T17:53:20.191Z,89.80
2019-04-24T17:55:54.906Z,89.90
2019-04-24T17:57:57.745Z,90.10
2019-04-24T18:00:43.552Z,90.30
2019-04-24T18:03:13.570Z,90.40
2019-04-24T18:05:41.887Z,90.60
2019-04-24T18:08:11.985Z,90.40
2019-04-24T18:10:41.718Z,90.60
2019-04-24T18:13:30.188Z,90.50
2019-04-24T18:19:16.809Z,90.50
2019-04-24T18:30:52.784Z,90.40
2019-04-24T18:33:42.197Z,90.40
2019-04-24T18:36:31.982Z,90.40
2019-04-24T18:39:19.929Z,90.40
2019-04-24T18:45:03.905Z,90.60
2019-04-24T18:47:53.358Z,90.60
2019-04-24T18:50:42.820Z,90.60
2019-04-24T18:53:31.679Z,90.70
2019-04-24T18:56:21.378Z,90.80
2019-04-24T18:59:10.743Z,90.90
2019-04-24T19:02:01.239Z,90.90
2019-04-24T19:04:51.242Z,90.80
2019-04-24T19:07:31.998Z,90.90
2019-04-24T19:10:12.935Z,91.10
2019-04-24T19:12:54.846Z,90.80
2019-04-24T19:15:36.121Z,90.90
2019-04-24T19:18:16.902Z,90.80
2019-04-24T19:20:45.944Z,90.90
2019-04-24T19:23:16.671Z,90.80
2019-04-24T19:29:03.684Z,91.00
2019-04-24T19:31:51.929Z,91.10
2019-04-24T19:34:41.917Z,91.20
2019-04-24T19:37:44.756Z,91.20
2019-04-24T19:40:34.882Z,91.30
2019-04-24T19:42:51.624Z,91.30
2019-04-24T19:45:39.519Z,91.40
2019-04-24T19:51:20.620Z,91.50
2019-04-24T19:54:08.583Z,91.60
2019-04-24T19:56:56.981Z,91.60
2019-04-24T19:59:44.977Z,91.60
2019-04-24T20:05:26.804Z,91.70
2019-04-24T20:08:08.032Z,91.70
2019-04-24T20:10:51.230Z,91.80
2019-04-24T20:13:22.083Z,91.80
2019-04-24T20:15:52.110Z,91.90
2019-04-24T20:18:41.869Z,92.00
2019-04-24T20:24:38.839Z,92.20
2019-04-24T20:27:26.761Z,92.40
2019-04-24T20:30:15.834Z,92.50
2019-04-24T20:33:04.458Z,92.60
2019-04-24T20:35:52.716Z,92.60
2019-04-24T20:38:42.057Z,92.80
2019-04-24T20:41:31.174Z,92.90
2019-04-24T20:44:19.668Z,92.90
2019-04-24T20:47:07.584Z,93.00
2019-04-24T20:49:55.548Z,93.10
2019-04-24T20:55:51.334Z,93.20
2019-04-24T20:58:23.491Z,93.40
2019-04-24T21:00:51.421Z,93.50
2019-04-24T21:03:23.419Z,93.60
2019-04-24T21:06:05.040Z,93.70
2019-04-24T21:08:41.112Z,93.70
2019-04-24T21:11:10.125Z,93.60
2019-04-24T21:13:38.864Z,93.70
2019-04-24T21:16:07.455Z,93.70
2019-04-24T21:18:36.040Z,93.70
2019-04-24T21:21:05.032Z,93.80
2019-04-24T21:23:33.655Z,93.80
2019-04-24T21:26:22.377Z,93.90
2019-04-24T21:29:11.739Z,93.80
2019-04-24T21:31:54.310Z,93.80
2019-04-24T21:34:35.451Z,93.80
2019-04-24T21:37:15.961Z,93.80
2019-04-24T21:39:57.035Z,93.90
2019-04-24T21:42:37.917Z,93.90
2019-04-24T21:45:19.274Z,93.90
2019-04-24T21:47:59.990Z,93.90
2019-04-24T21:50:42.724Z,93.90
2019-04-24T21:53:24.594Z,94.00
2019-04-24T21:56:05.664Z,94.00
2019-04-24T21:58:46.876Z,94.00
2019-04-24T22:07:21.828Z,94.10
2019-04-24T22:10:02.766Z,94.20
2019-04-24T22:12:44.133Z,94.30
2019-04-24T22:15:25.573Z,94.40
2019-04-24T22:18:07.116Z,94.40
2019-04-24T22:20:51.495Z,94.50
2019-04-24T22:23:51.836Z,94.60
2019-04-24T22:29:26.718Z,94.90
2019-04-24T22:35:03.143Z,95.20
2019-04-24T22:37:44.294Z,95.30
2019-04-24T22:40:44.624Z,95.50
2019-04-24T22:43:25.864Z,95.70
2019-04-24T22:46:06.408Z,95.80
2019-04-24T22:48:47.539Z,95.90
2019-04-24T22:51:39.361Z,96.10
2019-04-24T22:54:07.984Z,96.20
2019-04-24T22:56:45.448Z,96.40
2019-04-24T22:59:06.876Z,96.60
2019-04-24T23:02:00.025Z,96.80
2019-04-24T23:04:44.607Z,96.90
2019-04-24T23:07:32.620Z,97.00
2019-04-24T23:10:13.713Z,97.10
2019-04-24T23:12:54.811Z,97.00
2019-04-24T23:15:35.581Z,97.10
2019-04-24T23:18:16.615Z,97.30
2019-04-24T23:20:58.789Z,97.40
2019-04-24T23:23:58.833Z,97.60
2019-04-24T23:26:41.276Z,98.10
2019-04-24T23:29:24.214Z,98.10
2019-04-24T23:32:06.996Z,98.70
2019-04-24T23:34:51.258Z,99.30
2019-04-24T23:37:31.715Z,99.90
2019-04-24T23:40:13.072Z,99.90
2019-04-24T23:42:54.192Z,99.90
2019-04-24T23:45:35.011Z,99.90
2019-04-24T23:48:15.920Z,99.90
2019-04-24T23:50:56.689Z,99.90
2019-04-24T23:53:38.073Z,99.90
2019-04-24T23:56:19.341Z,99.90
2019-04-24T23:59:00.088Z,99.90
